Time;durP1;ratioP1;P1;durP2;ratioP2;P2;SDS_P1;SDS_P2;PMS_P1;PMS_P2;Temp;Humidity;BMP_temperature;BMP_pressure;BME280_temperature;BME280_humidity;BME280_pressure;Samples;Min_cycle;Max_cycle;Signal;HPM_P1;HPM_P2
2023/03/01 00:02:21;;;;;;;21.83;14.05;;;6.10;48.20;;;;;;5053816;28;20025;-76
2023/03/01 00:04:47;;;;;;;29.88;15.88;;;6.00;48.10;;;;;;5035661;28;20104;-75
2023/03/01 00:07:13;;;;;;;28.38;15.95;;;6.00;48.10;;;;;;5054264;28;20100;-75
2023/03/01 00:09:39;;;;;;;23.75;14.48;;;6.00;48.10;;;;;;5053582;28;20033;-76
2023/03/01 00:12:06;;;;;;;33.55;16.02;;;6.00;48.20;;;;;;5054269;28;20029;-75
2023/03/01 00:14:32;;;;;;;30.58;16.10;;;6.00;48.20;;;;;;5033074;28;20478;-76
2023/03/01 00:16:58;;;;;;;23.08;14.32;;;6.00;48.10;;;;;;5033878;28;20117;-75
2023/03/01 00:19:25;;;;;;;24.15;14.43;;;6.00;48.10;;;;;;5038637;28;20420;-75
2023/03/01 00:21:51;;;;;;;32.55;15.48;;;5.90;48.00;;;;;;5053840;28;20021;-75
2023/03/01 00:24:17;;;;;;;28.80;15.27;;;5.90;48.10;;;;;;5053648;28;20070;-75
2023/03/01 00:26:43;;;;;;;27.33;15.73;;;5.90;48.20;;;;;;5053082;28;20029;-75
2023/03/01 00:29:09;;;;;;;25.83;15.02;;;5.90;48.10;;;;;;5053531;28;20036;-74
2023/03/01 00:31:35;;;;;;;28.02;15.63;;;5.90;48.10;;;;;;5053706;28;20025;-75
2023/03/01 00:34:04;;;;;;;31.17;14.88;;;5.90;48.00;;;;;;5052513;28;20539;-75
2023/03/01 00:36:33;;;;;;;25.20;14.27;;;5.90;48.00;;;;;;5044225;28;20026;-75
2023/03/01 00:38:59;;;;;;;29.83;15.85;;;5.90;48.10;;;;;;5033508;28;20375;-75
2023/03/01 00:41:28;;;;;;;26.85;14.15;;;5.80;48.00;;;;;;5047624;28;20059;-75
2023/03/01 00:43:55;;;;;;;24.85;15.18;;;5.90;48.00;;;;;;5050973;28;20025;-76
2023/03/01 00:46:24;;;;;;;28.92;14.55;;;5.90;48.00;;;;;;5053684;28;20104;-76
2023/03/01 00:48:51;;;;;;;31.90;15.55;;;5.90;48.00;;;;;;5053438;28;20053;-75
2023/03/01 00:51:26;;;;;;;25.52;14.57;;;5.90;48.00;;;;;;5053470;28;20025;-75
2023/03/01 00:53:56;;;;;;;27.38;15.55;;;5.90;48.00;;;;;;5051231;28;20385;-75
2023/03/01 00:56:22;;;;;;;26.85;15.32;;;5.80;47.80;;;;;;5033327;28;20029;-75
2023/03/01 00:58:48;;;;;;;25.05;15.13;;;5.80;47.80;;;;;;5033541;28;20032;-75
2023/03/01 01:01:17;;;;;;;26.15;14.57;;;5.80;47.80;;;;;;5033324;28;20025;-75
2023/03/01 01:03:49;;;;;;;36.97;16.05;;;5.80;47.80;;;;;;5047130;28;20390;-76
2023/03/01 01:06:20;;;;;;;28.05;16.05;;;5.80;47.80;;;;;;5053310;28;20036;-76
2023/03/01 01:08:46;;;;;;;27.15;14.65;;;5.80;47.80;;;;;;5053362;28;20028;-76
2023/03/01 01:11:13;;;;;;;28.38;15.27;;;5.80;47.80;;;;;;5053100;28;20032;-76
2023/03/01 01:13:39;;;;;;;30.05;16.08;;;5.80;47.80;;;;;;5053348;28;20028;-75
2023/03/01 01:16:06;;;;;;;29.35;16.48;;;5.70;47.80;;;;;;5052833;28;20053;-76
2023/03/01 01:18:32;;;;;;;29.23;16.15;;;5.70;47.70;;;;;;5035303;28;20032;-76
2023/03/01 01:21:04;;;;;;;27.30;16.23;;;5.70;47.70;;;;;;5053472;28;20474;-76
2023/03/01 01:23:30;;;;;;;25.75;15.82;;;5.70;47.70;;;;;;5035156;28;20481;-76
2023/03/01 01:25:56;;;;;;;29.75;16.25;;;5.70;47.60;;;;;;5034973;28;20087;-76
2023/03/01 01:28:21;;;;;;;28.63;16.58;;;5.70;47.60;;;;;;5034989;28;20044;-76
2023/03/01 01:30:47;;;;;;;34.92;17.08;;;5.70;47.60;;;;;;5053239;28;20025;-76
2023/03/01 01:33:13;;;;;;;29.00;16.02;;;5.70;47.60;;;;;;5052569;28;20021;-76
2023/03/01 01:35:39;;;;;;;28.98;15.32;;;5.60;47.50;;;;;;5052105;28;20029;-75
2023/03/01 01:38:04;;;;;;;27.95;16.40;;;5.70;47.50;;;;;;5054824;28;20467;-76
2023/03/01 01:40:30;;;;;;;32.90;16.10;;;5.70;47.50;;;;;;5056774;28;20119;-76
2023/03/01 01:42:56;;;;;;;31.20;15.43;;;5.70;47.50;;;;;;5056843;28;20086;-76
2023/03/01 01:45:36;;;;;;;32.45;16.23;;;5.70;47.50;;;;;;5056669;28;20108;-76
2023/03/01 01:48:10;;;;;;;35.65;16.27;;;5.60;47.40;;;;;;5042786;28;20026;-76
2023/03/01 01:50:40;;;;;;;31.17;16.70;;;5.70;47.50;;;;;;5056654;28;20358;-76
2023/03/01 01:53:16;;;;;;;32.55;17.30;;;5.60;47.50;;;;;;5027980;28;20099;-76
2023/03/01 01:55:47;;;;;;;32.53;17.65;;;5.60;48.20;;;;;;5036336;28;20037;-76
2023/03/01 01:58:17;;;;;;;34.95;17.42;;;5.60;47.60;;;;;;5047359;28;20028;-76
2023/03/01 02:00:43;;;;;;;33.97;16.13;;;5.60;47.60;;;;;;5056842;28;20043;-75
2023/03/01 02:03:18;;;;;;;38.42;18.42;;;5.60;47.70;;;;;;5055597;28;20013;-76
2023/03/01 02:05:58;;;;;;;32.22;17.42;;;5.60;47.70;;;;;;5056370;28;20116;-76
2023/03/01 02:08:30;;;;;;;30.95;17.25;;;5.60;47.80;;;;;;5056471;28;20021;-76
2023/03/01 02:11:00;;;;;;;32.30;17.48;;;5.60;47.70;;;;;;5038091;28;20405;-76
2023/03/01 02:13:27;;;;;;;32.10;17.13;;;5.60;47.70;;;;;;5053519;28;20083;-76
2023/03/01 02:15:53;;;;;;;32.58;17.27;;;5.50;47.70;;;;;;5054391;28;20029;-76
2023/03/01 02:18:21;;;;;;;30.85;16.80;;;5.50;47.70;;;;;;5055993;28;20025;-76
2023/03/01 02:20:56;;;;;;;34.05;18.00;;;5.50;47.90;;;;;;5055899;28;20071;-76
2023/03/01 02:23:22;;;;;;;33.33;17.90;;;5.50;48.00;;;;;;5055912;28;20525;-76
2023/03/01 02:26:13;;;;;;;29.70;17.30;;;5.50;48.00;;;;;;5042232;28;20100;-76
2023/03/01 02:28:42;;;;;;;30.65;17.17;;;5.50;47.90;;;;;;5018191;28;20021;-76
2023/03/01 02:33:56;;;;;;;30.92;17.63;;;5.50;48.00;;;;;;5035586;28;20052;-76
2023/03/01 02:36:28;;;;;;;28.55;16.90;;;5.50;48.20;;;;;;5036004;28;20029;-76
2023/03/01 02:38:57;;;;;;;33.30;17.10;;;5.50;48.20;;;;;;5035667;28;20105;-76
2023/03/01 02:41:25;;;;;;;33.75;17.85;;;5.40;48.10;;;;;;5035708;28;20026;-76
2023/03/01 02:43:52;;;;;;;30.92;18.58;;;5.50;48.30;;;;;;5035662;28;20029;-76
2023/03/01 02:46:21;;;;;;;35.30;18.20;;;5.40;48.80;;;;;;5035622;28;20037;-76
2023/03/01 02:48:56;;;;;;;34.70;18.73;;;5.40;48.80;;;;;;5029523;28;20108;-76
2023/03/01 02:51:48;;;;;;;31.00;17.50;;;5.40;48.40;;;;;;5023672;28;20034;-76
2023/03/01 02:54:50;;;;;;;33.08;17.65;;;5.40;48.10;;;;;;5035739;28;20459;-76
2023/03/01 02:57:17;;;;;;;35.13;18.33;;;5.40;48.20;;;;;;5035351;28;20387;-76
2023/03/01 02:59:43;;;;;;;32.50;17.50;;;5.40;48.20;;;;;;5035347;28;20028;-76
2023/03/01 03:02:37;;;;;;;32.33;18.10;;;5.40;48.50;;;;;;5035634;28;20162;-76
2023/03/01 03:05:08;;;;;;;33.20;18.10;;;5.40;48.40;;;;;;5015381;28;20448;-76
2023/03/01 03:07:35;;;;;;;48.33;18.58;;;5.40;48.40;;;;;;5015509;28;20037;-75
2023/03/01 03:10:03;;;;;;;34.75;17.20;;;5.40;48.40;;;;;;5015349;28;20029;-75
2023/03/01 03:12:28;;;;;;;33.15;17.20;;;5.30;48.40;;;;;;5015392;28;20037;-76
2023/03/01 03:14:54;;;;;;;35.72;17.30;;;5.30;48.50;;;;;;5015295;28;20030;-76
2023/03/01 03:17:20;;;;;;;28.95;15.90;;;5.40;48.60;;;;;;5015238;28;20026;-75
2023/03/01 03:19:45;;;;;;;33.65;17.27;;;5.30;48.50;;;;;;5015111;28;20029;-76
2023/03/01 03:22:12;;;;;;;30.90;16.30;;;5.40;48.50;;;;;;5015141;28;20032;-76
2023/03/01 03:24:38;;;;;;;35.40;17.52;;;5.40;48.50;;;;;;5018727;28;20076;-76
2023/03/01 03:27:05;;;;;;;30.63;17.08;;;5.40;48.50;;;;;;5035233;28;20033;-75
2023/03/01 03:29:31;;;;;;;34.50;18.40;;;5.30;48.70;;;;;;5035060;28;20017;-75
2023/03/01 03:31:57;;;;;;;30.15;16.60;;;5.30;48.60;;;;;;5034831;28;20033;-76
2023/03/01 03:34:23;;;;;;;38.63;17.33;;;5.30;48.60;;;;;;5050137;28;20075;-75
2023/03/01 03:36:56;;;;;;;34.80;17.85;;;5.30;48.40;;;;;;5045409;28;20094;-76
2023/03/01 03:39:23;;;;;;;35.10;17.27;;;5.30;48.40;;;;;;5054963;28;20025;-76
2023/03/01 03:41:49;;;;;;;27.83;16.10;;;5.30;48.40;;;;;;5036701;28;20017;-75
2023/03/01 03:44:15;;;;;;;32.40;17.77;;;5.30;48.40;;;;;;5054739;28;20480;-76
2023/03/01 03:46:40;;;;;;;33.20;16.58;;;5.30;48.40;;;;;;5036593;28;20135;-76
2023/03/01 03:49:06;;;;;;;30.83;16.88;;;5.20;48.20;;;;;;5054773;28;20027;-76
2023/03/01 03:51:32;;;;;;;30.13;16.38;;;5.30;48.10;;;;;;5054437;28;20108;-76
2023/03/01 03:53:58;;;;;;;35.20;18.10;;;5.30;48.10;;;;;;5054598;28;20021;-75
2023/03/01 03:56:25;;;;;;;29.88;17.17;;;5.30;48.20;;;;;;5054174;28;20108;-76
2023/03/01 03:58:52;;;;;;;32.22;17.30;;;5.30;48.10;;;;;;5053988;28;20163;-76
2023/03/01 04:01:18;;;;;;;32.78;16.92;;;5.30;48.00;;;;;;5054305;28;20028;-76
2023/03/01 04:03:46;;;;;;;33.10;16.95;;;5.30;47.90;;;;;;5053302;28;20028;-76
2023/03/01 04:06:15;;;;;;;35.28;17.13;;;5.30;47.90;;;;;;5053920;28;20075;-76
2023/03/01 04:08:41;;;;;;;37.33;16.17;;;5.30;47.90;;;;;;5053954;28;20035;-75
2023/03/01 04:13:52;;;;;;;27.23;14.77;;;5.30;47.80;;;;;;5054148;28;20039;-76
2023/03/01 04:16:18;;;;;;;28.58;15.75;;;5.40;47.80;;;;;;5053945;28;20033;-76
2023/03/01 04:18:44;;;;;;;35.50;17.55;;;5.40;47.80;;;;;;5053644;28;20028;-76
2023/03/01 04:21:11;;;;;;;33.45;16.58;;;5.40;47.80;;;;;;5053689;28;20096;-76
2023/03/01 04:23:37;;;;;;;31.35;16.23;;;5.40;47.70;;;;;;5053644;28;20032;-76
2023/03/01 04:26:04;;;;;;;28.52;15.10;;;5.40;47.70;;;;;;5037846;28;20128;-76
2023/03/01 04:28:36;;;;;;;32.85;17.48;;;5.40;47.70;;;;;;5033576;28;20101;-75
2023/03/01 04:31:12;;;;;;;36.33;18.05;;;5.40;47.60;;;;;;5033878;28;20080;-75
2023/03/01 04:33:46;;;;;;;35.83;18.15;;;5.40;47.70;;;;;;5032793;28;20025;-76
2023/03/01 04:36:15;;;;;;;29.40;16.42;;;5.40;47.70;;;;;;5033542;28;20439;-76
2023/03/01 04:38:42;;;;;;;29.05;16.40;;;5.40;47.70;;;;;;5033945;28;20557;-76
2023/03/01 04:41:10;;;;;;;32.35;18.00;;;5.30;47.50;;;;;;5033479;28;20052;-76
2023/03/01 04:43:37;;;;;;;33.40;16.73;;;5.30;47.50;;;;;;5015634;28;20049;-76
2023/03/01 04:46:09;;;;;;;37.25;19.17;;;5.30;47.50;;;;;;5033293;28;20028;-76
2023/03/01 04:48:39;;;;;;;33.95;18.95;;;5.30;47.50;;;;;;5033192;28;20033;-76
2023/03/01 04:51:06;;;;;;;33.50;16.15;;;5.30;47.50;;;;;;5033476;28;20104;-76
2023/03/01 04:53:32;;;;;;;31.25;17.95;;;5.30;47.50;;;;;;5029799;28;20043;-76
2023/03/01 04:55:59;;;;;;;31.35;17.25;;;5.20;47.50;;;;;;5033447;28;20021;-76
2023/03/01 04:58:26;;;;;;;34.70;17.75;;;5.30;48.20;;;;;;5033079;28;20026;-75
2023/03/01 05:00:53;;;;;;;37.33;18.05;;;5.30;47.80;;;;;;5033328;28;20021;-76
2023/03/01 05:03:19;;;;;;;35.55;18.88;;;5.30;47.90;;;;;;5032892;28;20020;-76
2023/03/01 05:05:47;;;;;;;31.83;17.52;;;5.30;47.90;;;;;;5032856;28;20014;-76
2023/03/01 05:08:17;;;;;;;36.08;18.17;;;5.20;48.00;;;;;;5033003;28;20022;-76
2023/03/01 05:10:53;;;;;;;36.13;18.05;;;5.30;48.10;;;;;;5015551;28;20401;-75
2023/03/01 05:13:20;;;;;;;35.10;17.33;;;5.20;47.90;;;;;;5037346;28;20014;-76
2023/03/01 05:15:55;;;;;;;42.58;18.13;;;5.30;47.90;;;;;;5039526;28;20063;-76
2023/03/01 05:18:25;;;;;;;33.45;17.67;;;5.30;48.00;;;;;;5039458;28;20532;-76
2023/03/01 05:20:57;;;;;;;37.78;18.23;;;5.20;47.90;;;;;;5039756;28;20028;-76
2023/03/01 05:23:24;;;;;;;39.60;18.55;;;5.20;48.20;;;;;;5022085;28;20440;-76
2023/03/01 05:25:52;;;;;;;35.63;18.73;;;5.20;48.20;;;;;;5021526;28;20069;-75
2023/03/01 05:28:19;;;;;;;33.70;17.95;;;5.20;48.10;;;;;;5039384;28;20096;-76
2023/03/01 05:30:46;;;;;;;41.78;18.60;;;5.20;48.10;;;;;;5039676;28;20052;-76
2023/03/01 05:33:15;;;;;;;36.72;18.55;;;5.20;48.20;;;;;;5038964;28;20022;-76
2023/03/01 05:35:45;;;;;;;35.58;18.50;;;5.20;48.30;;;;;;5038889;28;20026;-76
2023/03/01 05:38:13;;;;;;;34.55;17.92;;;5.20;48.30;;;;;;5039268;28;20013;-76
2023/03/01 05:40:40;;;;;;;40.45;18.38;;;5.20;48.30;;;;;;5039355;28;20100;-75
2023/03/01 05:43:06;;;;;;;39.28;18.40;;;5.20;48.30;;;;;;5039273;28;20076;-76
2023/03/01 05:45:32;;;;;;;36.35;20.15;;;5.20;48.30;;;;;;5039391;28;20033;-76
2023/03/01 05:47:58;;;;;;;39.83;19.50;;;5.20;48.40;;;;;;5039154;28;20434;-76
2023/03/01 05:50:31;;;;;;;39.75;19.58;;;5.20;48.50;;;;;;5039827;28;20064;-76
2023/03/01 05:53:17;;;;;;;44.53;20.23;;;5.10;48.40;;;;;;5039324;28;20049;-76
2023/03/01 05:55:44;;;;;;;43.78;21.73;;;5.10;48.30;;;;;;5039443;28;20021;-76
2023/03/01 05:58:16;;;;;;;39.05;19.13;;;5.10;48.30;;;;;;5039203;28;20017;-76
2023/03/01 06:00:44;;;;;;;39.30;19.17;;;5.10;48.30;;;;;;5039084;28;20045;-76
2023/03/01 06:03:12;;;;;;;36.80;19.10;;;5.10;48.50;;;;;;5039019;28;20064;-76
2023/03/01 06:05:39;;;;;;;42.65;19.40;;;5.10;48.50;;;;;;5021279;28;20021;-75
2023/03/01 06:08:06;;;;;;;36.97;20.25;;;5.10;48.40;;;;;;5039136;28;20104;-76
2023/03/01 06:10:32;;;;;;;40.30;19.98;;;5.10;48.40;;;;;;5039147;28;20095;-75
2023/03/01 06:12:58;;;;;;;43.55;24.02;;;5.10;48.50;;;;;;5039396;28;20036;-76
2023/03/01 06:15:25;;;;;;;38.45;20.85;;;5.10;48.60;;;;;;5039138;28;20041;-76
2023/03/01 06:17:54;;;;;;;38.70;20.38;;;5.10;48.70;;;;;;5038785;28;20162;-76
2023/03/01 06:20:23;;;;;;;44.13;21.65;;;5.10;49.10;;;;;;5038944;28;20067;-76
2023/03/01 06:22:49;;;;;;;36.38;20.50;;;5.10;49.50;;;;;;5038983;28;20513;-76
2023/03/01 06:25:18;;;;;;;43.78;21.23;;;5.10;48.90;;;;;;5026023;28;20120;-76
2023/03/01 06:27:45;;;;;;;37.03;19.25;;;5.20;49.00;;;;;;4998346;28;20030;-76
2023/03/01 06:30:13;;;;;;;43.70;20.92;;;5.20;48.80;;;;;;5015426;28;20041;-77
2023/03/01 06:32:42;;;;;;;44.92;21.80;;;5.20;49.40;;;;;;5014422;28;20042;-76
2023/03/01 06:35:10;;;;;;;45.95;22.88;;;5.30;48.70;;;;;;5011823;28;20027;-76
2023/03/01 06:37:36;;;;;;;38.35;20.67;;;5.30;48.90;;;;;;5015598;28;20109;-76
2023/03/01 06:40:07;;;;;;;55.00;22.67;;;5.40;48.80;;;;;;5015629;28;20041;-76
2023/03/01 06:42:37;;;;;;;41.20;21.17;;;5.40;48.50;;;;;;5015196;28;20530;-76
2023/03/01 06:45:04;;;;;;;39.50;20.98;;;5.50;48.60;;;;;;5015507;28;20390;-76
2023/03/01 06:47:30;;;;;;;37.53;20.02;;;5.50;48.20;;;;;;5015185;28;20034;-76
2023/03/01 06:49:56;;;;;;;37.20;20.52;;;5.50;48.10;;;;;;5015388;28;20101;-76
2023/03/01 06:52:22;;;;;;;40.20;20.25;;;5.60;48.20;;;;;;5012532;28;20037;-76
2023/03/01 06:54:48;;;;;;;36.67;19.40;;;5.60;48.00;;;;;;5014439;28;20387;-76
2023/03/01 06:57:13;;;;;;;37.92;19.58;;;5.70;47.90;;;;;;5015621;28;20025;-76
2023/03/01 06:59:39;;;;;;;33.88;19.05;;;5.70;47.80;;;;;;5014799;28;20419;-76
2023/03/01 07:02:05;;;;;;;41.70;20.00;;;5.80;47.70;;;;;;5015241;28;20049;-76
2023/03/01 07:04:31;;;;;;;32.78;17.98;;;5.80;47.50;;;;;;5014362;28;20073;-76
2023/03/01 07:06:57;;;;;;;34.47;18.30;;;5.90;47.50;;;;;;5014884;28;20065;-76
2023/03/01 07:09:24;;;;;;;41.08;19.25;;;5.90;47.20;;;;;;5015066;28;20105;-75
2023/03/01 07:11:50;;;;;;;39.40;18.65;;;5.90;47.20;;;;;;5014839;28;20084;-76
2023/03/01 07:14:16;;;;;;;36.65;18.95;;;6.00;47.20;;;;;;5015016;28;20026;-76
2023/03/01 07:16:41;;;;;;;34.58;19.02;;;6.10;47.20;;;;;;5015000;28;20383;-76
2023/03/01 07:19:07;;;;;;;34.00;18.00;;;6.10;47.10;;;;;;5015557;28;20122;-76
2023/03/01 07:21:33;;;;;;;34.40;19.23;;;6.30;47.20;;;;;;5015365;28;20403;-76
2023/03/01 07:23:59;;;;;;;33.22;17.77;;;6.30;47.10;;;;;;5015569;28;20109;-76
2023/03/01 07:26:25;;;;;;;33.78;17.98;;;6.40;47.00;;;;;;5051190;28;20106;-76
2023/03/01 07:28:50;;;;;;;31.13;17.58;;;6.50;47.10;;;;;;5053887;28;20029;-76
2023/03/01 07:31:16;;;;;;;35.15;17.52;;;6.50;46.90;;;;;;5053871;28;20025;-75
2023/03/01 07:33:42;;;;;;;35.90;19.55;;;6.60;46.80;;;;;;5052973;28;20033;-76
2023/03/01 07:36:08;;;;;;;35.80;19.17;;;6.60;46.30;;;;;;5034462;28;20036;-76
2023/03/01 07:38:34;;;;;;;31.38;17.90;;;6.70;46.40;;;;;;5042500;28;20363;-76
2023/03/01 07:41:02;;;;;;;41.90;20.25;;;6.70;46.20;;;;;;5054406;28;20104;-76
2023/03/01 07:43:29;;;;;;;35.97;19.92;;;6.80;46.30;;;;;;5054290;28;20021;-76
2023/03/01 07:45:59;;;;;;;33.75;18.50;;;6.80;46.20;;;;;;5054167;28;20025;-76
2023/03/01 07:48:25;;;;;;;38.00;19.55;;;6.90;46.00;;;;;;5053953;28;20078;-75
2023/03/01 07:50:51;;;;;;;34.22;18.40;;;6.90;45.70;;;;;;5053895;28;20025;-76
2023/03/01 07:53:17;;;;;;;31.08;16.60;;;7.00;45.40;;;;;;5054030;28;20378;-75
2023/03/01 07:55:42;;;;;;;36.50;18.25;;;7.00;45.50;;;;;;5053707;28;20017;-76
2023/03/01 07:58:08;;;;;;;33.45;17.70;;;7.10;45.60;;;;;;5054040;28;20021;-75
2023/03/01 08:00:34;;;;;;;32.58;16.67;;;7.10;45.30;;;;;;5035420;28;20032;-75
2023/03/01 08:03:01;;;;;;;37.30;17.67;;;7.20;45.60;;;;;;5053670;28;20056;-75
2023/03/01 08:05:27;;;;;;;27.30;15.75;;;7.30;45.50;;;;;;5053518;28;20036;-75
2023/03/01 08:07:53;;;;;;;32.80;15.73;;;7.40;45.80;;;;;;5053597;28;20021;-75
2023/03/01 08:10:20;;;;;;;35.90;17.88;;;7.50;45.70;;;;;;5053352;28;20074;-76
2023/03/01 08:12:45;;;;;;;31.50;17.17;;;7.50;45.40;;;;;;5053832;28;20052;-76
2023/03/01 08:15:12;;;;;;;34.53;18.17;;;7.60;45.40;;;;;;5053859;28;20060;-76
2023/03/01 08:17:37;;;;;;;33.75;17.50;;;7.60;45.20;;;;;;5053338;28;20044;-75
2023/03/01 08:20:06;;;;;;;30.63;15.30;;;7.60;45.00;;;;;;5052667;28;20021;-75
2023/03/01 08:22:32;;;;;;;28.20;16.17;;;7.70;45.00;;;;;;5042147;28;20447;-75
2023/03/01 08:24:58;;;;;;;30.15;16.30;;;7.70;44.50;;;;;;5037274;28;20132;-75
2023/03/01 08:27:24;;;;;;;29.35;15.98;;;7.80;44.70;;;;;;5035435;28;20414;-76
2023/03/01 08:29:49;;;;;;;30.00;16.52;;;7.80;44.60;;;;;;5053287;28;20095;-76
2023/03/01 08:32:15;;;;;;;32.58;18.33;;;7.90;44.60;;;;;;5052840;28;20025;-76
2023/03/01 08:34:41;;;;;;;30.63;15.25;;;7.90;44.50;;;;;;5052472;28;20048;-75
2023/03/01 08:37:07;;;;;;;31.98;17.65;;;8.00;44.60;;;;;;5053141;28;20043;-76
2023/03/01 08:39:33;;;;;;;31.90;15.57;;;8.10;44.50;;;;;;5043005;28;20024;-76
2023/03/01 08:41:58;;;;;;;30.70;15.05;;;8.10;44.40;;;;;;5061328;28;20079;-76
2023/03/01 08:44:24;;;;;;;30.80;16.65;;;8.20;44.30;;;;;;5052905;28;20056;-75
2023/03/01 08:46:51;;;;;;;31.25;17.67;;;8.20;44.50;;;;;;5052822;28;20048;-76
2023/03/01 08:49:19;;;;;;;28.38;15.05;;;8.30;44.70;;;;;;5052624;28;20027;-75
2023/03/01 08:51:46;;;;;;;30.40;16.50;;;8.30;44.60;;;;;;5049775;28;20024;-76
2023/03/01 08:54:15;;;;;;;32.25;15.10;;;8.40;44.20;;;;;;5039456;28;20078;-76
2023/03/01 08:56:41;;;;;;;25.40;14.90;;;8.50;44.30;;;;;;5043708;28;20056;-75
2023/03/01 08:59:07;;;;;;;26.67;15.32;;;8.50;44.20;;;;;;5052867;28;20020;-74
2023/03/01 09:01:33;;;;;;;25.15;13.75;;;8.60;44.00;;;;;;5052184;28;20036;-75
2023/03/01 09:03:59;;;;;;;28.17;14.43;;;8.70;44.30;;;;;;5052191;28;20020;-76
2023/03/01 09:06:26;;;;;;;24.35;13.88;;;8.70;44.30;;;;;;5051717;28;20044;-75
2023/03/01 09:08:51;;;;;;;24.10;13.65;;;8.80;44.30;;;;;;5052507;28;20071;-75
2023/03/01 09:11:21;;;;;;;26.95;13.50;;;8.90;44.10;;;;;;5053022;28;20420;-77
2023/03/01 09:13:48;;;;;;;20.90;12.43;;;8.90;44.00;;;;;;5051669;28;20426;-75
2023/03/01 09:16:17;;;;;;;24.10;13.50;;;9.00;44.30;;;;;;5052653;28;20070;-76
2023/03/01 09:18:43;;;;;;;24.10;13.93;;;9.10;44.30;;;;;;5052816;28;20018;-75
2023/03/01 09:21:12;;;;;;;34.20;17.65;;;9.10;44.30;;;;;;5052924;28;20108;-76
2023/03/01 09:23:40;;;;;;;23.65;13.38;;;9.20;44.30;;;;;;5052751;28;20025;-76
2023/03/01 09:26:08;;;;;;;24.17;13.13;;;9.30;44.30;;;;;;5052927;28;20045;-76
2023/03/01 09:28:36;;;;;;;27.13;13.10;;;9.40;44.90;;;;;;5043466;28;20025;-76
2023/03/01 09:31:02;;;;;;;22.02;12.82;;;9.40;44.20;;;;;;5053892;28;20025;-75
2023/03/01 09:33:30;;;;;;;22.77;11.95;;;9.50;44.10;;;;;;5053608;28;20037;-75
2023/03/01 09:36:09;;;;;;;26.05;13.65;;;9.60;44.20;;;;;;5034541;28;20391;-76
2023/03/01 09:38:35;;;;;;;28.52;14.38;;;9.60;44.20;;;;;;5034311;28;20029;-75
2023/03/01 09:41:01;;;;;;;22.05;12.32;;;9.60;44.30;;;;;;5034705;28;20130;-76
2023/03/01 09:43:36;;;;;;;22.80;13.38;;;9.70;44.50;;;;;;5033533;28;20037;-76
2023/03/01 09:46:09;;;;;;;26.33;14.48;;;9.80;44.50;;;;;;5032682;28;20094;-75
2023/03/01 09:48:48;;;;;;;24.70;13.93;;;9.80;44.80;;;;;;5032860;28;20057;-75
2023/03/01 09:51:19;;;;;;;23.58;13.48;;;9.90;44.70;;;;;;5032790;28;20013;-76
2023/03/01 09:53:45;;;;;;;24.00;13.27;;;10.00;44.60;;;;;;5032643;28;20093;-76
2023/03/01 09:56:32;;;;;;;25.42;13.57;;;10.10;44.60;;;;;;5032833;28;20053;-75
2023/03/01 09:59:28;;;;;;;25.35;15.13;;;10.10;44.40;;;;;;5033992;28;20096;-76
2023/03/01 10:02:23;;;;;;;27.98;16.27;;;10.20;44.40;;;;;;5036355;28;20026;-75
2023/03/01 10:04:51;;;;;;;23.90;14.57;;;10.30;44.40;;;;;;5052478;28;20079;-75
2023/03/01 10:07:35;;;;;;;35.45;15.40;;;10.40;44.40;;;;;;5038434;28;20117;-75
2023/03/01 10:10:04;;;;;;;27.75;15.07;;;10.40;44.40;;;;;;5056276;28;20075;-74
2023/03/01 10:12:36;;;;;;;23.00;13.38;;;10.50;44.40;;;;;;5038035;28;20048;-75
2023/03/01 10:15:24;;;;;;;23.40;13.45;;;10.50;44.30;;;;;;5056699;28;20039;-75
2023/03/01 10:17:56;;;;;;;19.73;10.90;;;10.50;44.30;;;;;;5055920;28;20028;-75
2023/03/01 10:20:25;;;;;;;26.88;12.13;;;10.60;44.40;;;;;;5056057;28;20478;-75
2023/03/01 10:22:52;;;;;;;23.77;12.02;;;10.60;44.30;;;;;;5056246;28;20025;-75
2023/03/01 10:25:47;;;;;;;22.92;13.63;;;10.70;44.40;;;;;;5055948;28;20045;-75
2023/03/01 10:28:31;;;;;;;23.60;13.13;;;10.70;44.20;;;;;;5034047;28;20489;-75
2023/03/01 10:30:58;;;;;;;21.60;11.37;;;10.80;44.20;;;;;;5035902;28;20022;-76
2023/03/01 10:33:32;;;;;;;18.15;10.88;;;10.80;44.10;;;;;;5043204;28;20032;-76
2023/03/01 10:35:58;;;;;;;21.08;9.93;;;10.80;43.80;;;;;;5055635;28;20020;-75
2023/03/01 10:38:24;;;;;;;22.40;10.73;;;10.90;44.00;;;;;;5055654;28;20029;-77
2023/03/01 10:41:06;;;;;;;18.00;10.00;;;10.90;44.00;;;;;;5055492;28;20018;-75
2023/03/01 10:43:54;;;;;;;19.58;9.88;;;11.00;44.10;;;;;;5055521;28;20394;-75
2023/03/01 10:46:28;;;;;;;22.38;11.45;;;11.00;44.00;;;;;;5055482;28;20032;-75
2023/03/01 10:49:14;;;;;;;22.42;10.80;;;11.00;43.70;;;;;;5055532;28;20474;-75
2023/03/01 10:51:42;;;;;;;21.92;10.77;;;11.10;43.60;;;;;;5055800;28;20021;-75
2023/03/01 10:54:31;;;;;;;19.77;10.48;;;11.10;43.40;;;;;;5055344;28;20074;-76
2023/03/01 10:57:00;;;;;;;17.63;10.43;;;11.10;43.80;;;;;;5055567;28;20024;-75
2023/03/01 10:59:27;;;;;;;15.88;10.00;;;11.20;43.80;;;;;;5055265;28;20017;-76
2023/03/01 11:02:29;;;;;;;23.58;10.55;;;11.30;43.60;;;;;;5055105;28;20021;-76
2023/03/01 11:05:20;;;;;;;17.00;9.38;;;11.30;43.80;;;;;;5051657;28;20037;-76
2023/03/01 11:08:02;;;;;;;24.17;10.82;;;11.40;43.70;;;;;;5055114;28;20017;-76
2023/03/01 11:10:34;;;;;;;19.25;11.57;;;11.40;43.60;;;;;;5054381;28;20025;-76
2023/03/01 11:13:08;;;;;;;20.02;10.60;;;11.50;43.70;;;;;;5055016;28;20020;-76
2023/03/01 11:15:34;;;;;;;20.48;11.45;;;11.60;43.90;;;;;;5054931;28;20032;-76
2023/03/01 11:18:00;;;;;;;25.17;11.88;;;11.60;43.60;;;;;;5055303;28;20033;-76
2023/03/01 11:20:33;;;;;;;19.10;11.23;;;11.60;43.50;;;;;;5055160;28;20099;-76
2023/03/01 11:23:08;;;;;;;20.48;11.27;;;11.60;43.40;;;;;;5054790;28;20156;-77
2023/03/01 11:25:39;;;;;;;21.52;10.38;;;11.60;43.50;;;;;;5054516;28;20118;-76
2023/03/01 11:28:07;;;;;;;16.15;9.27;;;11.70;43.70;;;;;;5055083;28;20031;-76
2023/03/01 11:30:53;;;;;;;21.88;9.60;;;11.70;43.50;;;;;;5054600;28;20519;-76
2023/03/01 11:33:37;;;;;;;21.45;10.50;;;11.80;43.50;;;;;;5036376;28;20025;-76
2023/03/01 11:36:15;;;;;;;21.25;11.02;;;11.80;43.50;;;;;;5054637;28;20021;-76
2023/03/01 11:38:41;;;;;;;16.45;9.60;;;11.80;44.20;;;;;;5054832;28;20074;-76
2023/03/01 11:41:14;;;;;;;20.73;9.73;;;11.90;43.60;;;;;;5054403;28;20025;-76
2023/03/01 11:44:03;;;;;;;16.05;9.30;;;11.90;43.30;;;;;;5054064;28;20044;-77
2023/03/01 11:46:31;;;;;;;17.30;8.27;;;11.90;43.20;;;;;;5054760;28;20021;-76
2023/03/01 11:49:00;;;;;;;14.23;8.40;;;12.00;43.50;;;;;;5054426;28;20113;-76
2023/03/01 11:51:50;;;;;;;16.90;8.63;;;12.10;43.60;;;;;;5054326;28;20021;-76
2023/03/01 11:54:52;;;;;;;18.90;9.88;;;12.10;43.40;;;;;;5036551;28;20032;-76
2023/03/01 11:57:40;;;;;;;21.48;10.30;;;12.20;43.60;;;;;;5054172;28;20024;-77
2023/03/01 12:00:23;;;;;;;25.40;10.30;;;12.30;43.10;;;;;;5054176;28;20025;-76
2023/03/01 12:03:00;;;;;;;24.27;8.83;;;12.30;43.00;;;;;;5053830;28;20027;-76
2023/03/01 12:05:48;;;;;;;19.13;10.10;;;12.30;43.20;;;;;;5053833;28;20032;-76
2023/03/01 12:08:30;;;;;;;18.63;10.73;;;12.40;42.90;;;;;;5054255;28;20151;-76
2023/03/01 12:11:21;;;;;;;16.10;9.73;;;12.40;42.80;;;;;;5053914;28;20048;-76
2023/03/01 12:13:55;;;;;;;19.75;10.73;;;12.40;42.60;;;;;;5053986;28;20478;-77
2023/03/01 12:16:36;;;;;;;17.95;9.80;;;12.50;42.60;;;;;;5035849;28;20392;-76
2023/03/01 12:19:27;;;;;;;23.85;11.07;;;12.50;42.80;;;;;;5054143;28;20084;-76
2023/03/01 12:22:31;;;;;;;15.60;8.88;;;12.50;42.80;;;;;;5052923;28;20079;-77
2023/03/01 12:25:16;;;;;;;19.70;8.95;;;12.60;42.80;;;;;;5049241;28;20048;-77
2023/03/01 12:27:55;;;;;;;15.40;8.85;;;12.70;43.00;;;;;;5053725;28;20035;-76
2023/03/01 12:30:29;;;;;;;22.42;9.90;;;12.70;42.70;;;;;;5053581;28;20021;-77
2023/03/01 12:33:07;;;;;;;18.85;9.85;;;12.70;42.30;;;;;;5052903;28;20438;-77
2023/03/01 12:35:41;;;;;;;18.00;9.90;;;12.80;42.50;;;;;;5035699;28;20040;-75
2023/03/01 12:38:28;;;;;;;18.50;10.18;;;12.80;42.60;;;;;;5053381;28;20025;-74
2023/03/01 12:41:03;;;;;;;23.00;9.40;;;12.80;42.60;;;;;;5053472;28;20021;-77
2023/03/01 12:44:03;;;;;;;24.90;13.13;;;12.90;42.60;;;;;;5053488;28;20386;-76
2023/03/01 12:46:32;;;;;;;17.70;10.25;;;12.80;42.10;;;;;;5022816;28;20067;-76
2023/03/01 12:49:03;;;;;;;23.48;10.82;;;12.90;42.40;;;;;;5053325;28;20475;-77
2023/03/01 12:51:32;;;;;;;23.67;11.00;;;12.90;42.40;;;;;;5053274;28;20082;-77
2023/03/01 12:54:01;;;;;;;21.77;10.15;;;12.90;42.40;;;;;;5053154;28;20427;-76
2023/03/01 12:56:31;;;;;;;21.10;10.73;;;13.00;42.20;;;;;;5053001;28;20055;-76
2023/03/01 12:59:01;;;;;;;18.92;10.85;;;12.90;41.90;;;;;;5053890;28;20053;-76